Time;durP1;ratioP1;P1;durP2;ratioP2;P2;SDS_P1;SDS_P2;PMS_P1;PMS_P2;Temp;Humidity;BMP_temperature;BMP_pressure;BME280_temperature;BME280_humidity;BME280_pressure;Samples;Min_cycle;Max_cycle;Signal;HPM_P1;HPM_P2
2023/01/29 00:01:34;;;;;;;15.18;9.25;;;;;;;;;;5110148;28;20051;-76
2023/01/29 00:04:02;;;;;;;14.40;8.85;;;;;;;;;;5106049;28;20066;-76
2023/01/29 00:06:29;;;;;;;15.77;9.52;;;;;;;;;;5112266;28;20058;-76
2023/01/29 00:08:56;;;;;;;14.40;8.98;;;;;;;;;;5108856;27;20050;-76
2023/01/29 00:11:24;;;;;;;17.05;10.30;;;;;;;;;;5107254;28;20055;-73
2023/01/29 00:13:51;;;;;;;16.63;9.63;;;;;;;;;;5104196;28;20039;-75
2023/01/29 00:16:20;;;;;;;15.13;9.80;;;;;;;;;;5110841;28;20047;-76
2023/01/29 00:18:48;;;;;;;18.58;10.07;;;;;;;;;;5109708;28;20104;-76
2023/01/29 00:21:17;;;;;;;17.30;10.20;;;;;;;;;;5108701;28;20071;-76
2023/01/29 00:23:44;;;;;;;17.35;10.23;;;;;;;;;;5107664;27;20067;-76
2023/01/29 00:26:11;;;;;;;16.58;10.32;;;;;;;;;;5109184;27;20044;-74
2023/01/29 00:28:39;;;;;;;16.35;10.20;;;;;;;;;;5110216;28;20151;-75
2023/01/29 00:31:09;;;;;;;17.63;9.50;;;;;;;;;;5108642;28;20050;-75
2023/01/29 00:33:38;;;;;;;21.33;10.77;;;;;;;;;;5109987;28;20525;-75
2023/01/29 00:36:05;;;;;;;19.60;10.30;;;;;;;;;;5106234;27;20047;-76
2023/01/29 00:38:33;;;;;;;15.25;10.23;;;;;;;;;;5111742;28;20063;-76
2023/01/29 00:46:36;;;;;;;21.38;11.80;;;;;;;;;;5105526;28;20067;-75
2023/01/29 00:49:05;;;;;;;24.55;11.45;;;;;;;;;;5103897;28;20055;-76
2023/01/29 00:51:33;;;;;;;24.67;12.25;;;;;;;;;;5110443;28;20054;-73
2023/01/29 00:54:01;;;;;;;20.20;12.10;;;;;;;;;;5107502;28;20043;-74
2023/01/29 00:56:29;;;;;;;19.02;12.80;;;;;;;;;;5106319;28;20126;-72
2023/01/29 00:58:56;;;;;;;18.90;11.88;;;;;;;;;;5104405;28;20051;-74
2023/01/29 01:04:06;;;;;;;24.50;12.57;;;;;;;;;;5107107;28;20067;-71
2023/01/29 01:06:34;;;;;;;16.60;11.75;;;;;;;;;;5108545;28;20059;-73
2023/01/29 01:11:46;;;;;;;23.27;12.90;;;;;;;;;;5105871;28;20086;-74
2023/01/29 01:14:13;;;;;;;19.92;12.85;;;;;;;;;;5107251;28;20048;-74
2023/01/29 01:16:40;;;;;;;19.73;12.90;;;;;;;;;;5109856;28;20051;-73
2023/01/29 01:19:09;;;;;;;22.10;12.50;;;;;;;;;;5108066;28;20506;-73
2023/01/29 01:21:36;;;;;;;19.30;13.45;;;;;;;;;;5107501;28;20078;-73
2023/01/29 01:24:04;;;;;;;25.00;13.55;;;;;;;;;;5107603;28;20047;-67
2023/01/29 01:26:32;;;;;;;23.98;14.40;;;;;;;;;;5107075;28;20050;-74
2023/01/29 01:28:59;;;;;;;25.42;14.98;;;;;;;;;;5108600;28;20096;-71
2023/01/29 01:31:26;;;;;;;23.70;15.18;;;;;;;;;;5105200;28;20063;-72
2023/01/29 01:33:55;;;;;;;27.10;15.07;;;;;;;;;;5106325;28;20047;-74
2023/01/29 01:36:23;;;;;;;26.48;15.02;;;;;;;;;;5106811;28;20039;-72
2023/01/29 01:38:51;;;;;;;26.25;15.85;;;;;;;;;;5103885;28;20052;-67
2023/01/29 01:41:20;;;;;;;23.05;14.60;;;;;;;;;;5109005;28;20048;-73
2023/01/29 01:43:48;;;;;;;27.67;15.05;;;;;;;;;;5105962;28;20147;-74
2023/01/29 01:46:15;;;;;;;23.08;15.32;;;;;;;;;;5107097;28;20498;-73
2023/01/29 01:48:43;;;;;;;24.30;14.85;;;;;;;;;;5109800;28;20050;-67
2023/01/29 01:51:10;;;;;;;36.65;16.52;;;;;;;;;;5107031;28;20478;-73
2023/01/29 01:53:42;;;;;;;25.27;16.80;;;;;;;;;;5107695;28;20436;-73
2023/01/29 01:56:11;;;;;;;36.17;17.42;;;;;;;;;;5108245;28;20402;-73
2023/01/29 01:58:40;;;;;;;30.50;17.70;;;;;;;;;;5108236;28;20051;-72
2023/01/29 02:01:08;;;;;;;26.70;17.42;;;;;;;;;;5109214;28;21079;-73
2023/01/29 02:11:56;;;;;;;34.78;18.73;;;;;;;;;;5108173;28;20055;-74
2023/01/29 02:14:24;;;;;;;33.28;19.33;;;;;;;;;;5109703;28;20048;-73
2023/01/29 02:16:51;;;;;;;35.00;19.55;;;;;;;;;;5105393;28;20044;-73
2023/01/29 02:19:23;;;;;;;37.03;20.35;;;;;;;;;;5108851;28;20513;-74
2023/01/29 02:22:05;;;;;;;36.40;20.13;;;;;;;;;;5102733;28;20513;-71
2023/01/29 02:24:51;;;;;;;35.75;20.98;;;;;;;;;;5087956;28;20051;-72
2023/01/29 02:27:20;;;;;;;35.50;22.08;;;;;;;;;;5105858;28;20074;-73
2023/01/29 02:29:53;;;;;;;35.60;21.70;;;;;;;;;;5104489;28;20043;-71
2023/01/29 02:32:23;;;;;;;38.25;21.98;;;;;;;;;;5103985;28;20352;-70
2023/01/29 02:37:46;;;;;;;35.10;21.00;;;;;;;;;;5105740;28;20051;-73
2023/01/29 02:40:18;;;;;;;28.98;18.85;;;;;;;;;;5108071;28;20040;-73
2023/01/29 02:42:50;;;;;;;32.90;19.05;;;;;;;;;;5099570;28;20055;-72
2023/01/29 02:45:20;;;;;;;28.67;18.67;;;;;;;;;;5101752;28;20060;-74
2023/01/29 02:47:49;;;;;;;31.17;18.95;;;;;;;;;;5099909;28;20048;-73
2023/01/29 02:50:19;;;;;;;33.95;18.83;;;;;;;;;;5099716;28;20047;-73
2023/01/29 02:52:53;;;;;;;31.88;19.10;;;;;;;;;;5099190;28;20071;-72
2023/01/29 02:55:24;;;;;;;28.02;18.40;;;;;;;;;;5105785;28;20101;-73
2023/01/29 02:57:54;;;;;;;28.20;17.67;;;;;;;;;;5108467;28;20050;-72
2023/01/29 03:00:24;;;;;;;30.77;18.30;;;;;;;;;;5108673;28;20651;-74
2023/01/29 03:02:55;;;;;;;31.52;18.92;;;;;;;;;;5107419;28;20517;-69
2023/01/29 03:05:26;;;;;;;30.17;19.27;;;;;;;;;;5106370;28;20055;-73
2023/01/29 03:07:54;;;;;;;38.92;18.88;;;;;;;;;;5107121;28;20062;-73
2023/01/29 03:10:23;;;;;;;32.40;19.08;;;;;;;;;;5109621;28;20043;-73
2023/01/29 03:12:55;;;;;;;27.55;18.60;;;;;;;;;;5106467;28;20059;-74
2023/01/29 03:15:26;;;;;;;27.70;18.80;;;;;;;;;;5107485;28;20067;-74
2023/01/29 03:17:54;;;;;;;32.38;18.02;;;;;;;;;;5103969;28;20140;-73
2023/01/29 03:20:25;;;;;;;31.58;18.83;;;;;;;;;;5107399;28;20047;-74
2023/01/29 03:22:55;;;;;;;29.08;18.17;;;;;;;;;;5107678;28;20470;-74
2023/01/29 03:33:45;;;;;;;32.10;18.23;;;;;;;;;;5100654;28;20055;-73
2023/01/29 03:36:15;;;;;;;30.27;18.27;;;;;;;;;;5109699;28;20048;-74
2023/01/29 03:38:43;;;;;;;28.17;17.27;;;;;;;;;;5107848;28;20051;-72
2023/01/29 03:41:14;;;;;;;31.23;17.45;;;;;;;;;;5110067;28;20070;-73
2023/01/29 03:43:45;;;;;;;29.95;18.13;;;;;;;;;;5107401;28;20445;-73
2023/01/29 03:46:19;;;;;;;34.85;19.13;;;;;;;;;;5109826;28;20143;-73
2023/01/29 03:48:51;;;;;;;35.58;19.67;;;;;;;;;;5106078;28;20063;-74
2023/01/29 03:51:23;;;;;;;31.75;19.33;;;;;;;;;;5108522;28;20047;-74
2023/01/29 03:53:52;;;;;;;30.67;19.10;;;;;;;;;;5109195;28;20062;-74
2023/01/29 03:56:23;;;;;;;27.27;18.15;;;;;;;;;;5108045;28;20048;-73
2023/01/29 03:58:55;;;;;;;30.67;18.63;;;;;;;;;;5109717;28;20051;-73
2023/01/29 04:01:28;;;;;;;28.88;18.73;;;;;;;;;;5105489;27;20051;-74
2023/01/29 04:03:58;;;;;;;30.67;19.27;;;;;;;;;;5101556;28;20494;-73
2023/01/29 04:06:26;;;;;;;28.55;19.17;;;;;;;;;;5110801;28;20055;-69
2023/01/29 04:08:56;;;;;;;35.30;19.45;;;;;;;;;;5110699;28;20404;-73
2023/01/29 04:11:24;;;;;;;31.35;19.33;;;;;;;;;;5109138;28;20036;-74
2023/01/29 04:13:52;;;;;;;30.75;19.42;;;;;;;;;;5107566;27;20040;-73
2023/01/29 04:16:21;;;;;;;34.22;18.30;;;;;;;;;;5108574;28;20043;-73
2023/01/29 04:18:50;;;;;;;28.50;18.65;;;;;;;;;;5107002;28;20053;-71
2023/01/29 04:21:18;;;;;;;28.90;18.83;;;;;;;;;;5104403;28;20071;-74
2023/01/29 04:23:45;;;;;;;29.25;18.75;;;;;;;;;;5108966;28;20058;-74
2023/01/29 04:26:23;;;;;;;30.77;17.77;;;;;;;;;;5110941;28;20078;-73
2023/01/29 04:28:55;;;;;;;27.02;17.70;;;;;;;;;;5107442;28;20517;-72
2023/01/29 04:31:23;;;;;;;30.33;17.30;;;;;;;;;;5107821;28;20047;-74
2023/01/29 04:33:59;;;;;;;29.55;18.00;;;;;;;;;;5106478;28;20051;-73
2023/01/29 04:36:46;;;;;;;29.83;16.90;;;;;;;;;;5111229;27;20432;-73
2023/01/29 04:39:16;;;;;;;30.20;17.17;;;;;;;;;;5097428;28;20060;-74
2023/01/29 04:41:47;;;;;;;26.92;16.27;;;;;;;;;;5106196;28;20138;-71
2023/01/29 04:44:17;;;;;;;26.42;16.48;;;;;;;;;;5097865;28;20063;-74
2023/01/29 04:46:48;;;;;;;25.85;16.60;;;;;;;;;;5106574;28;20048;-73
2023/01/29 04:49:23;;;;;;;30.30;16.42;;;;;;;;;;5107908;28;20047;-74
2023/01/29 04:51:56;;;;;;;26.98;17.13;;;;;;;;;;5107591;28;20146;-74
2023/01/29 04:54:29;;;;;;;22.65;16.20;;;;;;;;;;5105491;28;20050;-74
2023/01/29 04:57:02;;;;;;;27.67;16.63;;;;;;;;;;5105806;28;20051;-73
2023/01/29 04:59:31;;;;;;;27.90;17.70;;;;;;;;;;5106146;28;20051;-74
2023/01/29 05:01:59;;;;;;;25.67;16.90;;;;;;;;;;5107529;28;21391;-74
2023/01/29 05:04:31;;;;;;;30.00;16.88;;;;;;;;;;5106621;28;20134;-74
2023/01/29 05:06:59;;;;;;;25.05;16.45;;;;;;;;;;5108830;28;20082;-74
2023/01/29 05:09:26;;;;;;;26.48;16.40;;;;;;;;;;5104740;28;20055;-74
2023/01/29 05:11:54;;;;;;;27.63;16.73;;;;;;;;;;5103685;28;20058;-74
2023/01/29 05:14:21;;;;;;;22.58;15.77;;;;;;;;;;5109577;28;20119;-74
2023/01/29 05:16:52;;;;;;;24.38;16.95;;;;;;;;;;5109517;28;20047;-73
2023/01/29 05:19:19;;;;;;;25.13;15.50;;;;;;;;;;5105804;28;20500;-73
2023/01/29 05:21:49;;;;;;;23.92;15.80;;;;;;;;;;5108660;28;20043;-74
2023/01/29 05:24:18;;;;;;;21.23;15.15;;;;;;;;;;5109693;27;20051;-74
2023/01/29 05:29:30;;;;;;;25.27;14.93;;;;;;;;;;5109383;28;20039;-74
2023/01/29 05:31:57;;;;;;;25.52;16.27;;;;;;;;;;5105837;28;20043;-72
2023/01/29 05:34:25;;;;;;;24.20;16.08;;;;;;;;;;5108255;28;20059;-74
2023/01/29 05:36:53;;;;;;;27.13;16.45;;;;;;;;;;5106912;27;20055;-72
2023/01/29 05:39:20;;;;;;;28.88;16.65;;;;;;;;;;5095392;28;20060;-74
2023/01/29 05:41:48;;;;;;;32.92;17.67;;;;;;;;;;5104479;28;20047;-74
2023/01/29 05:44:15;;;;;;;24.92;16.90;;;;;;;;;;5106281;28;20060;-74
2023/01/29 05:46:42;;;;;;;29.02;18.02;;;;;;;;;;5106174;28;20048;-74
2023/01/29 05:49:09;;;;;;;32.38;19.23;;;;;;;;;;5106510;28;20054;-74
2023/01/29 05:51:37;;;;;;;35.13;19.15;;;;;;;;;;5098169;28;20044;-71
2023/01/29 05:54:05;;;;;;;35.15;19.50;;;;;;;;;;5106217;28;20052;-72
2023/01/29 05:56:32;;;;;;;40.42;20.98;;;;;;;;;;5104952;28;20052;-74
2023/01/29 05:59:00;;;;;;;32.97;20.20;;;;;;;;;;5107908;28;20051;-74
2023/01/29 06:01:27;;;;;;;38.85;20.35;;;;;;;;;;5104155;28;20044;-74
2023/01/29 06:03:54;;;;;;;38.33;20.40;;;;;;;;;;5108356;27;20047;-74
2023/01/29 06:06:21;;;;;;;38.42;20.52;;;;;;;;;;5107794;28;20516;-74
2023/01/29 06:08:49;;;;;;;37.78;21.23;;;;;;;;;;5108183;28;20044;-74
2023/01/29 06:11:18;;;;;;;30.58;20.33;;;;;;;;;;5108559;28;20367;-73
2023/01/29 06:13:45;;;;;;;33.33;20.25;;;;;;;;;;5106153;28;20059;-74
2023/01/29 06:16:13;;;;;;;35.88;21.23;;;;;;;;;;5108714;28;20097;-74
2023/01/29 06:18:41;;;;;;;33.88;20.65;;;;;;;;;;5105356;28;20054;-73
2023/01/29 06:21:09;;;;;;;36.28;21.15;;;;;;;;;;5107327;28;20074;-73
2023/01/29 06:23:37;;;;;;;37.22;21.63;;;;;;;;;;5109430;28;20044;-73
2023/01/29 06:26:05;;;;;;;41.00;22.00;;;;;;;;;;5106832;28;20405;-74
2023/01/29 06:28:34;;;;;;;38.42;21.73;;;;;;;;;;5105620;28;20048;-74
2023/01/29 06:31:02;;;;;;;32.35;21.35;;;;;;;;;;5104482;27;20066;-74
2023/01/29 06:33:29;;;;;;;33.30;21.10;;;;;;;;;;5105847;28;20040;-74
2023/01/29 06:35:57;;;;;;;34.38;21.98;;;;;;;;;;5105523;28;20051;-74
2023/01/29 06:38:25;;;;;;;35.92;22.02;;;;;;;;;;5104814;28;20087;-74
2023/01/29 06:40:52;;;;;;;36.45;23.48;;;;;;;;;;5107495;28;20035;-74
2023/01/29 06:43:19;;;;;;;39.13;24.05;;;;;;;;;;5107340;28;20074;-74
2023/01/29 06:45:49;;;;;;;41.40;25.15;;;;;;;;;;5110314;28;20494;-74
2023/01/29 06:48:16;;;;;;;41.83;23.65;;;;;;;;;;5107347;28;20074;-73
2023/01/29 06:50:44;;;;;;;43.72;24.77;;;;;;;;;;5109946;28;20496;-74
2023/01/29 06:53:11;;;;;;;42.60;24.45;;;;;;;;;;5104232;28;20070;-74
2023/01/29 06:55:38;;;;;;;46.55;27.60;;;;;;;;;;5105857;28;20043;-72
2023/01/29 06:58:06;;;;;;;45.40;24.88;;;;;;;;;;5106463;28;20055;-72
2023/01/29 07:00:34;;;;;;;43.38;24.75;;;;;;;;;;5106951;28;20490;-74
2023/01/29 07:03:03;;;;;;;46.08;25.25;;;;;;;;;;5110397;28;20044;-74
2023/01/29 07:05:30;;;;;;;47.65;27.38;;;;;;;;;;5109928;28;20130;-74
2023/01/29 07:07:57;;;;;;;52.30;26.58;;;;;;;;;;5105986;28;20055;-72
2023/01/29 07:10:25;;;;;;;57.03;27.55;;;;;;;;;;5107485;28;20130;-74
2023/01/29 07:12:52;;;;;;;53.60;28.08;;;;;;;;;;5111487;27;20055;-74
2023/01/29 07:15:20;;;;;;;55.17;28.80;;;;;;;;;;5108830;28;20055;-74
2023/01/29 07:17:56;;;;;;;64.03;31.73;;;;;;;;;;5110553;28;20142;-74
2023/01/29 07:20:26;;;;;;;69.60;31.55;;;;;;;;;;5109462;28;20509;-73
2023/01/29 07:22:53;;;;;;;88.78;33.70;;;;;;;;;;5109036;28;20048;-74
2023/01/29 07:25:21;;;;;;;76.63;32.40;;;;;;;;;;5113556;27;20047;-74
2023/01/29 07:27:48;;;;;;;79.13;33.35;;;;;;;;;;5110582;28;20050;-73
2023/01/29 07:30:16;;;;;;;78.63;33.38;;;;;;;;;;5108776;28;20052;-74
2023/01/29 07:32:43;;;;;;;74.32;34.65;;;;;;;;;;5111204;28;20035;-73
2023/01/29 07:35:10;;;;;;;85.90;34.13;;;;;;;;;;5109795;28;20471;-74
2023/01/29 07:37:39;;;;;;;105.18;36.53;;;;;;;;;;5111354;28;20431;-75
2023/01/29 07:40:10;;;;;;;85.32;35.45;;;;;;;;;;5109742;28;20525;-74
2023/01/29 07:42:37;;;;;;;84.43;35.92;;;;;;;;;;5108490;28;20052;-77
2023/01/29 07:45:05;;;;;;;82.13;34.10;;;;;;;;;;5103544;27;20043;-77
2023/01/29 07:47:32;;;;;;;84.78;34.45;;;;;;;;;;5109786;28;20047;-77
2023/01/29 07:49:59;;;;;;;89.05;36.90;;;;;;;;;;5100038;28;20056;-75
2023/01/29 07:52:27;;;;;;;93.03;37.38;;;;;;;;;;5109866;28;20039;-77
2023/01/29 07:54:55;;;;;;;93.93;36.67;;;;;;;;;;5104344;28;20073;-76
2023/01/29 07:57:23;;;;;;;84.00;38.05;;;;;;;;;;5112544;28;20051;-77
2023/01/29 07:59:50;;;;;;;95.15;38.10;;;;;;;;;;5104393;28;20548;-77
2023/01/29 08:02:17;;;;;;;105.30;38.78;;;;;;;;;;5102822;28;20055;-78
2023/01/29 08:04:45;;;;;;;91.40;37.05;;;;;;;;;;5109184;27;20044;-77
2023/01/29 08:07:12;;;;;;;91.03;37.90;;;;;;;;;;5107930;28;20062;-77
2023/01/29 08:09:39;;;;;;;90.13;36.35;;;;;;;;;;5106272;27;20475;-77
2023/01/29 08:12:08;;;;;;;91.45;37.78;;;;;;;;;;5106995;28;20043;-78
2023/01/29 08:14:35;;;;;;;104.55;39.47;;;;;;;;;;5103468;28;20047;-78
2023/01/29 08:17:02;;;;;;;90.63;37.38;;;;;;;;;;5109199;28;20063;-76
2023/01/29 08:19:29;;;;;;;100.40;39.25;;;;;;;;;;5108955;28;20058;-78
2023/01/29 08:21:57;;;;;;;93.78;38.92;;;;;;;;;;5111192;28;20490;-79
2023/01/29 08:24:24;;;;;;;93.80;38.83;;;;;;;;;;5108354;27;20059;-78
2023/01/29 08:26:51;;;;;;;102.15;39.22;;;;;;;;;;5109479;27;20055;-75
2023/01/29 08:29:20;;;;;;;95.38;39.30;;;;;;;;;;5105355;28;20059;-79
2023/01/29 08:31:47;;;;;;;92.93;38.33;;;;;;;;;;5106253;28;20056;-79
2023/01/29 08:34:14;;;;;;;89.03;41.45;;;;;;;;;;5107671;28;20055;-78
2023/01/29 08:36:41;;;;;;;105.85;39.38;;;;;;;;;;5110561;27;20048;-77
2023/01/29 08:39:09;;;;;;;100.40;38.67;;;;;;;;;;5106361;28;20070;-79
2023/01/29 08:41:36;;;;;;;94.07;39.47;;;;;;;;;;5109840;27;20047;-78
2023/01/29 08:44:03;;;;;;;109.85;41.70;;;;;;;;;;5109696;28;20066;-78
2023/01/29 08:46:32;;;;;;;97.53;39.20;;;;;;;;;;5108615;28;20044;-78
2023/01/29 08:48:59;;;;;;;112.88;40.65;;;;;;;;;;5107229;28;20054;-78
2023/01/29 08:51:26;;;;;;;95.82;38.53;;;;;;;;;;5105511;28;20062;-78
2023/01/29 08:53:54;;;;;;;93.45;37.65;;;;;;;;;;5107764;28;20039;-76
2023/01/29 08:56:21;;;;;;;91.93;37.70;;;;;;;;;;5107601;28;20505;-77
2023/01/29 08:58:48;;;;;;;90.05;36.75;;;;;;;;;;5109412;27;20054;-77
2023/01/29 09:01:16;;;;;;;92.57;36.90;;;;;;;;;;5110425;27;20050;-77
2023/01/29 09:03:44;;;;;;;94.20;36.10;;;;;;;;;;5110224;28;20512;-78
2023/01/29 09:06:12;;;;;;;83.20;36.40;;;;;;;;;;5109970;27;20075;-78
2023/01/29 09:08:40;;;;;;;86.53;35.58;;;;;;;;;;5109995;28;20055;-79
2023/01/29 09:11:08;;;;;;;87.82;35.45;;;;;;;;;;5108615;28;20048;-78
2023/01/29 09:13:35;;;;;;;80.78;35.45;;;;;;;;;;5109783;28;20048;-79
2023/01/29 09:16:03;;;;;;;77.32;34.58;;;;;;;;;;5108743;28;20384;-78
2023/01/29 09:18:31;;;;;;;87.18;35.42;;;;;;;;;;5107924;28;20131;-78
2023/01/29 09:21:01;;;;;;;86.05;35.78;;;;;;;;;;5109310;28;20055;-79
2023/01/29 09:23:28;;;;;;;80.35;34.83;;;;;;;;;;5106076;28;20063;-79
2023/01/29 09:25:55;;;;;;;82.20;33.78;;;;;;;;;;5108465;28;20063;-80
2023/01/29 09:28:23;;;;;;;78.03;34.25;;;;;;;;;;5110002;28;20071;-77
2023/01/29 09:30:50;;;;;;;76.03;32.25;;;;;;;;;;5109077;28;20044;-77
2023/01/29 09:33:18;;;;;;;77.50;34.40;;;;;;;;;;5103016;28;20043;-78
2023/01/29 09:35:46;;;;;;;87.25;33.97;;;;;;;;;;5103667;28;20402;-77
2023/01/29 09:38:15;;;;;;;93.45;35.05;;;;;;;;;;5109595;28;20199;-77
2023/01/29 09:40:50;;;;;;;83.22;34.97;;;;;;;;;;5107779;28;20055;-77
2023/01/29 09:43:19;;;;;;;76.13;34.22;;;;;;;;;;5107507;28;20090;-71
2023/01/29 09:45:51;;;;;;;79.32;33.75;;;;;;;;;;5108805;28;20051;-74
2023/01/29 09:48:19;;;;;;;82.88;35.10;;;;;;;;;;5108561;28;20059;-77
2023/01/29 09:50:48;;;;;;;88.13;34.88;;;;;;;;;;5109278;28;20394;-76
2023/01/29 09:53:19;;;;;;;82.22;33.72;;;;;;;;;;5108339;28;20056;-77
2023/01/29 09:55:49;;;;;;;80.60;34.35;;;;;;;;;;5106888;28;20498;-75
2023/01/29 09:58:19;;;;;;;86.65;34.35;;;;;;;;;;5108193;28;20414;-77
2023/01/29 10:00:52;;;;;;;70.00;30.58;;;;;;;;;;5103296;27;20058;-77
2023/01/29 10:03:25;;;;;;;76.57;32.23;;;;;;;;;;5107400;28;20070;-77
2023/01/29 10:06:04;;;;;;;75.10;30.77;;;;;;;;;;5104158;28;20051;-76
2023/01/29 10:08:41;;;;;;;69.65;30.63;;;;;;;;;;5108003;28;20116;-77
2023/01/29 10:11:17;;;;;;;72.88;30.73;;;;;;;;;;5104134;28;20054;-75
2023/01/29 10:13:49;;;;;;;69.47;29.83;;;;;;;;;;5106203;28;20062;-77
2023/01/29 10:16:22;;;;;;;59.03;26.95;;;;;;;;;;5107889;28;20058;-77
2023/01/29 10:18:59;;;;;;;60.95;26.58;;;;;;;;;;5105275;28;20411;-77
2023/01/29 10:21:38;;;;;;;62.63;27.05;;;;;;;;;;5108842;28;20051;-76
2023/01/29 10:24:13;;;;;;;60.75;26.45;;;;;;;;;;5107012;27;20050;-77
2023/01/29 10:26:41;;;;;;;67.57;26.60;;;;;;;;;;5107574;28;20511;-77
2023/01/29 10:29:08;;;;;;;66.45;26.88;;;;;;;;;;5101160;28;20047;-77
2023/01/29 10:31:38;;;;;;;65.68;26.88;;;;;;;;;;5108395;28;20493;-77
2023/01/29 10:34:08;;;;;;;57.88;23.52;;;;;;;;;;5104555;28;20458;-77
2023/01/29 10:36:37;;;;;;;56.17;23.75;;;;;;;;;;5104205;28;20051;-76
2023/01/29 10:39:04;;;;;;;66.40;25.02;;;;;;;;;;5104123;28;20047;-77
2023/01/29 10:41:43;;;;;;;66.20;25.98;;;;;;;;;;5102728;28;20044;-78
2023/01/29 10:44:21;;;;;;;60.63;24.58;;;;;;;;;;5105841;28;20044;-78
2023/01/29 10:46:56;;;;;;;60.72;25.70;;;;;;;;;;5104936;28;20046;-75
2023/01/29 10:49:30;;;;;;;62.50;25.75;;;;;;;;;;5104379;28;20789;-77
2023/01/29 10:52:06;;;;;;;60.88;25.15;;;;;;;;;;5095745;28;20410;-77
2023/01/29 10:54:40;;;;;;;53.90;22.80;;;;;;;;;;5105069;28;20048;-80
2023/01/29 10:57:15;;;;;;;60.15;24.13;;;;;;;;;;5099222;28;20062;-78
2023/01/29 10:59:50;;;;;;;60.28;24.55;;;;;;;;;;5103770;28;20044;-77
2023/01/29 11:02:20;;;;;;;59.33;24.95;;;;;;;;;;5105055;28;20055;-78
2023/01/29 11:04:47;;;;;;;55.30;23.95;;;;;;;;;;5103937;28;20090;-74
2023/01/29 11:07:15;;;;;;;57.33;24.90;;;;;;;;;;5103154;28;20051;-78
2023/01/29 11:09:44;;;;;;;51.65;23.52;;;;;;;;;;5102721;28;20047;-75
2023/01/29 11:12:14;;;;;;;62.90;24.23;;;;;;;;;;5105765;28;20047;-77
2023/01/29 11:14:45;;;;;;;55.03;24.67;;;;;;;;;;5104110;28;20051;-75
2023/01/29 11:17:15;;;;;;;62.95;25.20;;;;;;;;;;5100733;28;20044;-78
2023/01/29 11:19:44;;;;;;;55.63;24.02;;;;;;;;;;5099342;28;20506;-78
2023/01/29 11:22:14;;;;;;;65.07;24.65;;;;;;;;;;5104313;28;20040;-76
2023/01/29 11:24:41;;;;;;;59.25;24.88;;;;;;;;;;5110857;28;20055;-73
2023/01/29 11:27:16;;;;;;;60.28;24.25;;;;;;;;;;5101246;28;20054;-71
2023/01/29 11:29:44;;;;;;;61.30;23.88;;;;;;;;;;5106144;28;20055;-75
2023/01/29 11:32:14;;;;;;;61.28;22.67;;;;;;;;;;5105766;28;20333;-76
2023/01/29 11:34:57;;;;;;;58.55;23.52;;;;;;;;;;5100446;28;20074;-78
2023/01/29 11:37:24;;;;;;;57.15;23.92;;;;;;;;;;5105210;28;20066;-78
2023/01/29 11:39:52;;;;;;;58.42;21.88;;;;;;;;;;5107909;28;20130;-77
2023/01/29 11:42:22;;;;;;;62.38;22.60;;;;;;;;;;5106665;28;20058;-77
2023/01/29 11:44:50;;;;;;;54.83;20.73;;;;;;;;;;5107146;28;20055;-76
2023/01/29 11:47:19;;;;;;;57.63;21.35;;;;;;;;;;5105260;28;20043;-77
2023/01/29 11:49:47;;;;;;;51.05;20.23;;;;;;;;;;5111654;28;20071;-75
2023/01/29 11:52:15;;;;;;;52.28;19.95;;;;;;;;;;5110777;28;20063;-74
2023/01/29 11:54:45;;;;;;;57.83;20.60;;;;;;;;;;5105030;28;20075;-71
2023/01/29 11:57:25;;;;;;;55.03;18.92;;;;;;;;;;5110786;28;20398;-75
2023/01/29 11:59:53;;;;;;;50.63;18.05;;;;;;;;;;5110275;28;20052;-77
2023/01/29 12:02:26;;;;;;;54.38;17.52;;;;;;;;;;5110928;28;20083;-76
2023/01/29 12:04:55;;;;;;;39.80;14.80;;;;;;;;;;5106623;28;20051;-78
2023/01/29 12:07:22;;;;;;;40.15;13.43;;;;;;;;;;5109301;28;20048;-77
2023/01/29 12:09:50;;;;;;;40.20;13.88;;;;;;;;;;5108693;28;20051;-74
2023/01/29 12:12:19;;;;;;;37.30;12.80;;;;;;;;;;5111334;28;20055;-78
2023/01/29 12:14:47;;;;;;;49.22;13.52;;;;;;;;;;5105014;28;20055;-78
2023/01/29 12:17:19;;;;;;;34.65;12.80;;;;;;;;;;5109107;28;20047;-74
2023/01/29 12:19:48;;;;;;;39.30;11.65;;;;;;;;;;5108872;28;20047;-79
2023/01/29 12:22:16;;;;;;;33.55;10.43;;;;;;;;;;5109967;28;20513;-77
2023/01/29 12:24:49;;;;;;;39.40;13.52;;;;;;;;;;5103554;28;20386;-77
2023/01/29 12:27:20;;;;;;;27.00;10.10;;;;;;;;;;5084257;28;20491;-76
2023/01/29 12:29:50;;;;;;;26.60;10.32;;;;;;;;;;5090246;28;20044;-75
2023/01/29 12:32:23;;;;;;;28.58;9.48;;;;;;;;;;5088061;28;20401;-76
2023/01/29 12:34:53;;;;;;;27.05;9.68;;;;;;;;;;5086467;28;20051;-76
2023/01/29 12:37:23;;;;;;;29.35;9.73;;;;;;;;;;5088637;28;20490;-77
2023/01/29 12:39:51;;;;;;;31.00;10.10;;;;;;;;;;5090080;28;20070;-76
2023/01/29 12:42:21;;;;;;;29.67;9.15;;;;;;;;;;5083727;28;20059;-74
2023/01/29 12:44:53;;;;;;;28.60;9.30;;;;;;;;;;5085314;28;20141;-73
2023/01/29 12:47:22;;;;;;;27.38;9.13;;;;;;;;;;5089226;28;20056;-76
2023/01/29 12:49:52;;;;;;;26.60;9.45;;;;;;;;;;5083907;28;20059;-76
2023/01/29 12:52:21;;;;;;;31.38;9.98;;;;;;;;;;5085607;28;20059;-77
2023/01/29 12:54:52;;;;;;;24.73;9.07;;;;;;;;;;5088591;28;20131;-76
2023/01/29 12:57:22;;;;;;;30.05;9.40;;;;;;;;;;5084275;28;20079;-76
2023/01/29 12:59:53;;;;;;;27.60;9.43;;;;;;;;;;5090030;28;20118;-76
2023/01/29 13:02:26;;;;;;;25.30;9.02;;;;;;;;;;5087192;28;20060;-77
2023/01/29 13:04:56;;;;;;;35.25;8.93;;;;;;;;;;5086077;28;20499;-76
2023/01/29 13:07:26;;;;;;;20.88;8.10;;;;;;;;;;5086950;28;20486;-77
2023/01/29 13:09:56;;;;;;;22.65;8.48;;;;;;;;;;5089622;28;20181;-75
2023/01/29 13:12:23;;;;;;;28.48;8.35;;;;;;;;;;5086686;28;20146;-76
2023/01/29 13:14:54;;;;;;;20.17;7.82;;;;;;;;;;5087471;28;20043;-76
2023/01/29 13:17:24;;;;;;;20.17;7.28;;;;;;;;;;5084825;28;20052;-76
2023/01/29 13:19:53;;;;;;;21.92;6.88;;;;;;;;;;5083088;28;20047;-75
2023/01/29 13:22:22;;;;;;;14.50;5.60;;;;;;;;;;5091709;28;20044;-76
2023/01/29 13:24:50;;;;;;;14.65;5.15;;;;;;;;;;5095595;28;20054;-75
2023/01/29 13:27:22;;;;;;;18.38;5.50;;;;;;;;;;5103339;28;20051;-74
2023/01/29 13:29:49;;;;;;;17.45;5.18;;;;;;;;;;5119696;27;20052;-76
2023/01/29 13:32:22;;;;;;;14.73;3.97;;;;;;;;;;5104374;28;20540;-77
2023/01/29 13:34:50;;;;;;;7.35;4.15;;;;;;;;;;5102947;28;20252;-76
2023/01/29 13:37:19;;;;;;;9.52;2.90;;;;;;;;;;5105360;28;20421;-77
2023/01/29 13:39:48;;;;;;;8.82;2.97;;;;;;;;;;5105722;28;20048;-76
2023/01/29 13:42:19;;;;;;;8.45;3.55;;;;;;;;;;5102850;28;20067;-76
2023/01/29 13:44:49;;;;;;;16.80;4.40;;;;;;;;;;5108140;28;20425;-70
2023/01/29 13:47:24;;;;;;;11.43;5.00;;;;;;;;;;5120558;27;20145;-78
2023/01/29 13:49:56;;;;;;;17.88;5.32;;;;;;;;;;5106563;28;20070;-76
2023/01/29 13:52:26;;;;;;;12.32;5.25;;;;;;;;;;5104649;28;20060;-75
2023/01/29 13:54:57;;;;;;;22.23;6.10;;;;;;;;;;5103463;28;20055;-72
2023/01/29 13:57:43;;;;;;;17.48;6.10;;;;;;;;;;5104006;28;20051;-76
2023/01/29 14:00:31;;;;;;;16.45;5.85;;;;;;;;;;5104665;28;20055;-76
2023/01/29 14:03:13;;;;;;;24.08;6.18;;;;;;;;;;5098290;28;20537;-75
2023/01/29 14:05:42;;;;;;;21.40;6.43;;;;;;;;;;5102104;28;20055;-76
2023/01/29 14:08:36;;;;;;;16.98;6.05;;;;;;;;;;5100551;28;20054;-76
2023/01/29 14:11:22;;;;;;;24.02;7.03;;;;;;;;;;5093713;28;20048;-76
2023/01/29 14:13:51;;;;;;;23.83;6.43;;;;;;;;;;5107760;28;20044;-75
2023/01/29 14:16:29;;;;;;;26.75;6.40;;;;;;;;;;5103542;27;20063;-76
2023/01/29 14:18:57;;;;;;;18.67;5.95;;;;;;;;;;5101045;27;20087;-75
2023/01/29 14:21:30;;;;;;;28.80;7.05;;;;;;;;;;5106284;28;20047;-76
2023/01/29 14:23:58;;;;;;;23.98;7.25;;;;;;;;;;5104263;28;20138;-75
2023/01/29 14:26:28;;;;;;;20.63;5.57;;;;;;;;;;5067447;28;20131;-77
2023/01/29 14:29:02;;;;;;;23.17;6.28;;;;;;;;;;5068091;28;20059;-76
2023/01/29 14:31:31;;;;;;;26.38;6.07;;;;;;;;;;5066482;28;20044;-75
2023/01/29 14:34:02;;;;;;;28.42;5.78;;;;;;;;;;5065815;28;20075;-74
2023/01/29 14:36:38;;;;;;;24.48;6.60;;;;;;;;;;5067787;28;20419;-75
2023/01/29 14:39:06;;;;;;;23.98;6.43;;;;;;;;;;5066586;28;20048;-76
2023/01/29 14:41:35;;;;;;;26.95;6.75;;;;;;;;;;5063581;28;20044;-76
2023/01/29 14:44:20;;;;;;;27.90;6.85;;;;;;;;;;5060138;28;20051;-75
2023/01/29 14:46:47;;;;;;;25.58;6.78;;;;;;;;;;5065313;28;20042;-75
2023/01/29 14:49:35;;;;;;;24.20;6.35;;;;;;;;;;5079058;28;20049;-75
2023/01/29 14:52:04;;;;;;;20.60;6.20;;;;;;;;;;5066675;28;20045;-75
2023/01/29 14:54:32;;;;;;;21.23;6.78;;;;;;;;;;5057676;28;20068;-75
2023/01/29 14:57:03;;;;;;;26.88;6.68;;;;;;;;;;5068043;28;20072;-75
2023/01/29 14:59:36;;;;;;;30.63;6.82;;;;;;;;;;5063634;28;20048;-75
2023/01/29 15:02:13;;;;;;;22.90;5.68;;;;;;;;;;5060582;28;20393;-75
2023/01/29 15:04:43;;;;;;;27.42;6.57;;;;;;;;;;5067789;28;20040;-75
2023/01/29 15:07:16;;;;;;;26.67;6.65;;;;;;;;;;5068052;28;20060;-74